createdAt,value
2018-07-25T00:00:32.657Z,12.40
2018-07-25T00:03:00.881Z,9.10
2018-07-25T00:05:29.113Z,8.43
2018-07-25T00:07:57.359Z,9.10
2018-07-25T00:10:31.037Z,10.00
2018-07-25T00:12:59.258Z,9.67
2018-07-25T00:15:27.514Z,9.07
2018-07-25T00:17:55.735Z,8.33
2018-07-25T00:20:23.964Z,6.47
2018-07-25T00:22:52.180Z,5.80
2018-07-25T00:25:20.413Z,7.60
2018-07-25T00:27:48.635Z,5.83
2018-07-25T00:30:16.862Z,8.70
2018-07-25T00:32:45.099Z,11.57
2018-07-25T00:35:13.315Z,11.50
2018-07-25T00:37:41.569Z,10.40
2018-07-25T00:40:09.801Z,8.67
2018-07-25T00:42:38.100Z,7.07
2018-07-25T00:45:06.337Z,7.80
2018-07-25T00:47:34.589Z,9.00
2018-07-25T00:50:02.806Z,8.63
2018-07-25T00:52:31.032Z,9.03
2018-07-25T00:54:59.270Z,7.33
2018-07-25T00:57:27.535Z,6.23
2018-07-25T00:59:55.800Z,7.10
2018-07-25T01:02:23.806Z,7.23
2018-07-25T01:04:52.029Z,8.03
2018-07-25T01:07:20.280Z,6.70
2018-07-25T01:09:48.496Z,8.50
2018-07-25T01:12:16.736Z,9.60
2018-07-25T01:14:44.946Z,8.77
2018-07-25T01:17:13.171Z,8.40
2018-07-25T01:19:41.394Z,7.83
2018-07-25T01:22:09.739Z,7.40
2018-07-25T01:24:37.991Z,11.63
2018-07-25T01:27:06.359Z,8.53
2018-07-25T01:29:34.593Z,9.80
2018-07-25T01:32:02.824Z,6.17
2018-07-25T01:34:31.031Z,8.40
2018-07-25T01:36:59.278Z,7.90
2018-07-25T01:39:27.500Z,8.63
2018-07-25T01:41:55.761Z,6.83
2018-07-25T01:44:23.744Z,6.53
2018-07-25T01:46:56.009Z,9.83
2018-07-25T01:49:24.221Z,10.13
2018-07-25T01:51:52.445Z,6.70
2018-07-25T01:54:20.653Z,7.40
2018-07-25T01:56:48.880Z,8.03
2018-07-25T01:59:17.090Z,10.20
2018-07-25T02:01:45.417Z,7.40
2018-07-25T02:04:13.613Z,7.60
2018-07-25T02:06:41.606Z,9.90
2018-07-25T02:09:10.748Z,9.33
2018-07-25T02:11:39.124Z,10.83
2018-07-25T02:14:07.381Z,7.00
2018-07-25T02:16:35.599Z,8.53
2018-07-25T02:19:03.837Z,7.47
2018-07-25T02:21:32.072Z,7.93
2018-07-25T02:24:00.332Z,7.27
2018-07-25T02:26:28.593Z,9.37
2018-07-25T02:28:56.840Z,10.30
2018-07-25T02:31:25.065Z,7.40
2018-07-25T02:33:58.657Z,7.70
2018-07-25T02:36:27.295Z,8.37
2018-07-25T02:38:55.539Z,8.93
2018-07-25T02:41:23.797Z,10.23
2018-07-25T02:43:52.255Z,7.10
2018-07-25T02:46:20.409Z,8.87
2018-07-25T02:48:48.643Z,8.83
2018-07-25T02:51:16.856Z,7.87
2018-07-25T02:53:45.451Z,7.47
2018-07-25T02:56:13.663Z,6.80
2018-07-25T02:58:41.895Z,6.87
2018-07-25T03:01:10.188Z,7.87
2018-07-25T03:03:38.407Z,8.23
2018-07-25T03:06:06.617Z,8.40
2018-07-25T03:08:34.887Z,7.37
2018-07-25T03:11:03.125Z,10.63
2018-07-25T03:13:31.384Z,9.60
2018-07-25T03:16:02.685Z,7.27
2018-07-25T03:18:30.986Z,7.87
2018-07-25T03:21:00.235Z,7.93
2018-07-25T03:23:28.951Z,8.47
2018-07-25T03:25:57.208Z,7.30
2018-07-25T03:28:25.989Z,10.17
2018-07-25T03:30:54.349Z,10.00
2018-07-25T03:33:23.362Z,8.83
2018-07-25T03:35:51.620Z,7.90
2018-07-25T03:38:20.390Z,12.60
2018-07-25T03:40:48.894Z,8.47
2018-07-25T03:43:17.184Z,8.70
2018-07-25T03:45:45.769Z,8.93
2018-07-25T03:48:14.028Z,8.50
2018-07-25T03:50:42.278Z,7.80
2018-07-25T03:53:10.512Z,8.10
2018-07-25T03:55:38.492Z,7.70
2018-07-25T03:58:06.737Z,8.50
2018-07-25T04:00:35.252Z,9.40
2018-07-25T04:03:03.550Z,8.20
2018-07-25T04:05:31.762Z,9.43
2018-07-25T04:08:00.021Z,9.33
2018-07-25T04:10:28.292Z,10.83
2018-07-25T04:12:56.717Z,8.50
2018-07-25T04:15:24.935Z,11.20
2018-07-25T04:17:53.162Z,8.60
2018-07-25T04:20:21.438Z,8.00
2018-07-25T04:22:49.436Z,8.83
2018-07-25T04:25:17.686Z,7.60
2018-07-25T04:27:46.763Z,7.40
2018-07-25T04:30:16.282Z,12.40
2018-07-25T04:32:45.065Z,7.70
2018-07-25T04:35:14.459Z,8.20
2018-07-25T04:37:43.120Z,8.00
2018-07-25T04:40:11.424Z,10.10
2018-07-25T04:42:39.691Z,14.93
2018-07-25T04:45:09.154Z,10.43
2018-07-25T04:47:37.392Z,8.57
2018-07-25T04:50:05.705Z,11.83
2018-07-25T04:52:33.936Z,10.00
2018-07-25T04:55:02.235Z,9.63
2018-07-25T04:57:30.460Z,6.93
2018-07-25T04:59:58.716Z,8.93
2018-07-25T05:02:26.968Z,6.27
2018-07-25T05:04:55.212Z,15.13
2018-07-25T05:07:23.453Z,7.83
2018-07-25T05:09:51.688Z,9.07
2018-07-25T05:12:19.912Z,7.57
2018-07-25T05:14:48.157Z,10.07
2018-07-25T05:17:16.388Z,12.00
2018-07-25T05:19:44.652Z,6.97
2018-07-25T05:22:12.660Z,10.73
2018-07-25T05:24:40.903Z,14.43
2018-07-25T05:27:09.176Z,8.70
2018-07-25T05:29:37.409Z,10.70
2018-07-25T05:32:05.641Z,10.03
2018-07-25T05:34:33.872Z,9.13
2018-07-25T05:37:02.086Z,16.60
2018-07-25T05:39:30.332Z,8.43
2018-07-25T05:41:58.618Z,10.90
2018-07-25T05:44:26.924Z,9.47
2018-07-25T05:46:55.156Z,7.17
2018-07-25T05:49:23.377Z,9.03
2018-07-25T05:51:51.616Z,8.97
2018-07-25T05:54:19.894Z,11.43
2018-07-25T05:56:48.179Z,9.37
2018-07-25T05:59:16.170Z,10.07
2018-07-25T06:01:44.383Z,7.67
2018-07-25T06:04:12.654Z,11.27
2018-07-25T06:06:40.861Z,8.97
2018-07-25T06:09:10.062Z,13.13
2018-07-25T06:11:38.475Z,8.57
2018-07-25T06:14:06.698Z,8.27
2018-07-25T06:16:34.945Z,7.07
2018-07-25T06:19:03.201Z,10.33
2018-07-25T06:21:31.555Z,8.13
2018-07-25T06:23:59.792Z,11.03
2018-07-25T06:26:28.108Z,7.50
2018-07-25T06:28:56.352Z,11.00
2018-07-25T06:31:24.670Z,6.17
2018-07-25T06:33:52.888Z,8.17
2018-07-25T06:36:21.119Z,6.83
2018-07-25T06:38:49.343Z,7.30
2018-07-25T06:41:17.654Z,9.47
2018-07-25T06:43:45.955Z,8.40
2018-07-25T06:46:14.286Z,6.23
2018-07-25T06:48:42.488Z,5.27
2018-07-25T06:51:10.740Z,6.47
2018-07-25T06:53:39.306Z,6.30
2018-07-25T06:56:07.337Z,5.63
2018-07-25T06:58:35.575Z,5.17
2018-07-25T07:01:03.882Z,7.00
2018-07-25T07:03:32.100Z,12.87
2018-07-25T07:06:00.353Z,6.93
2018-07-25T07:08:28.557Z,5.93
2018-07-25T07:10:56.808Z,6.60
2018-07-25T07:13:25.029Z,5.13
2018-07-25T07:15:53.281Z,8.67
2018-07-25T07:18:21.488Z,6.90
2018-07-25T07:20:49.732Z,9.70
2018-07-25T07:23:17.948Z,8.08
2018-07-25T07:25:46.218Z,8.10
2018-07-25T07:28:14.420Z,13.03
2018-07-25T07:30:42.735Z,6.67
2018-07-25T07:33:10.953Z,11.10
2018-07-25T07:35:39.294Z,6.87
2018-07-25T07:38:07.519Z,7.85
2018-07-25T07:40:35.740Z,9.80
2018-07-25T07:43:03.989Z,5.62
2018-07-25T07:45:32.240Z,5.17
2018-07-25T07:48:00.563Z,5.47
2018-07-25T07:50:28.804Z,7.78
2018-07-25T07:52:57.052Z,10.65
2018-07-25T07:55:25.275Z,3.08
2018-07-25T07:57:53.501Z,3.72
2018-07-25T08:00:21.728Z,2.67
2018-07-25T08:02:49.957Z,5.28
2018-07-25T08:05:18.186Z,5.25
2018-07-25T08:07:46.508Z,10.90
2018-07-25T08:10:14.773Z,4.28
2018-07-25T08:12:42.991Z,7.17
2018-07-25T08:15:11.203Z,2.30
2018-07-25T08:17:39.558Z,3.55
2018-07-25T08:20:07.777Z,5.78
2018-07-25T08:22:36.074Z,4.83
2018-07-25T08:25:04.344Z,5.85
2018-07-25T08:27:33.285Z,5.92
2018-07-25T08:30:01.493Z,4.03
2018-07-25T08:32:30.157Z,2.70
2018-07-25T08:34:58.373Z,3.00
2018-07-25T08:37:26.635Z,5.78
2018-07-25T08:39:55.589Z,3.25
2018-07-25T08:42:23.842Z,4.75
2018-07-25T08:44:52.059Z,8.55
2018-07-25T08:47:20.308Z,3.90
2018-07-25T08:49:48.512Z,5.17
2018-07-25T08:52:16.755Z,3.33
2018-07-25T08:54:44.968Z,3.35
2018-07-25T08:57:13.221Z,3.58
2018-07-25T08:59:41.456Z,3.75
2018-07-25T09:02:09.705Z,4.37
2018-07-25T09:04:38.004Z,3.55
2018-07-25T09:07:06.291Z,3.85
2018-07-25T09:09:34.535Z,5.35
2018-07-25T09:12:02.769Z,5.30
2018-07-25T09:14:30.993Z,4.50
2018-07-25T09:16:59.076Z,6.12
2018-07-25T09:19:27.267Z,3.87
2018-07-25T09:21:55.509Z,2.77
2018-07-25T09:24:23.510Z,4.37
2018-07-25T09:26:51.740Z,2.85
2018-07-25T09:29:20.042Z,4.87
2018-07-25T09:31:48.277Z,3.83
2018-07-25T09:34:16.611Z,1.98
2018-07-25T09:36:44.739Z,4.62
2018-07-25T09:39:12.989Z,3.35
2018-07-25T09:41:41.256Z,4.45
2018-07-25T09:44:09.490Z,6.45
2018-07-25T09:46:37.795Z,2.58
2018-07-25T09:49:06.091Z,8.73
2018-07-25T09:51:34.349Z,4.17
2018-07-25T09:54:02.571Z,3.80
2018-07-25T09:56:30.825Z,2.52
2018-07-25T09:58:59.192Z,4.10
2018-07-25T10:01:27.359Z,3.45
2018-07-25T10:03:55.645Z,4.85
2018-07-25T10:06:23.866Z,2.83
2018-07-25T10:08:52.120Z,2.75
2018-07-25T10:11:22.848Z,3.40
2018-07-25T10:13:51.886Z,3.10
2018-07-25T10:16:20.141Z,4.30
2018-07-25T10:18:48.405Z,4.65
2018-07-25T10:21:16.641Z,5.92
2018-07-25T10:23:44.885Z,2.55
2018-07-25T10:26:13.177Z,2.92
2018-07-25T10:28:41.433Z,3.05
2018-07-25T10:31:09.786Z,4.28
2018-07-25T10:33:38.026Z,5.28
2018-07-25T10:36:06.323Z,2.98
2018-07-25T10:38:34.544Z,2.30
2018-07-25T10:41:02.795Z,4.47
2018-07-25T10:43:31.049Z,2.47
2018-07-25T10:45:59.048Z,3.85
2018-07-25T10:48:27.309Z,4.40
2018-07-25T10:50:55.537Z,4.10
2018-07-25T10:53:23.803Z,6.33
2018-07-25T10:55:52.321Z,4.60
2018-07-25T10:58:20.536Z,3.10
2018-07-25T11:00:48.765Z,4.35
2018-07-25T11:03:16.801Z,3.47
2018-07-25T11:05:45.073Z,5.12
2018-07-25T11:08:13.342Z,3.65
2018-07-25T11:10:41.561Z,4.10
2018-07-25T11:13:09.850Z,3.62
2018-07-25T11:15:38.120Z,2.67
2018-07-25T11:18:06.442Z,3.75
2018-07-25T11:20:34.716Z,4.65
2018-07-25T11:23:03.077Z,3.20
2018-07-25T11:25:31.201Z,3.58
2018-07-25T11:27:59.443Z,3.85
2018-07-25T11:30:27.666Z,3.58
2018-07-25T11:32:55.962Z,3.90
2018-07-25T11:35:24.153Z,3.45
2018-07-25T11:37:52.509Z,1.75
2018-07-25T11:40:20.746Z,3.22
2018-07-25T11:42:48.972Z,2.83
2018-07-25T11:45:17.212Z,5.12
2018-07-25T11:47:45.454Z,2.15
2018-07-25T11:50:13.712Z,5.05
2018-07-25T11:52:41.956Z,2.98
2018-07-25T11:55:10.182Z,2.25
2018-07-25T11:57:38.411Z,4.10
2018-07-25T12:00:07.029Z,2.65
2018-07-25T12:02:35.232Z,5.10
2018-07-25T12:05:03.490Z,3.47
2018-07-25T12:07:31.735Z,2.70
2018-07-25T12:10:00.009Z,2.15
2018-07-25T12:12:28.281Z,5.30
2018-07-25T12:14:56.521Z,2.60
2018-07-25T12:17:24.761Z,2.15
2018-07-25T12:19:53.011Z,3.90
2018-07-25T12:22:21.269Z,3.90
2018-07-25T12:24:49.522Z,2.05
2018-07-25T12:27:17.761Z,3.05
2018-07-25T12:29:48.787Z,2.60
2018-07-25T12:32:17.031Z,2.02
2018-07-25T12:34:45.302Z,3.98
2018-07-25T12:37:13.531Z,1.80
2018-07-25T12:39:41.779Z,2.62
2018-07-25T12:42:10.180Z,4.47
2018-07-25T12:44:38.482Z,3.33
2018-07-25T12:47:06.557Z,3.17
2018-07-25T12:49:34.956Z,3.45
2018-07-25T12:52:03.214Z,2.40
2018-07-25T12:54:31.523Z,2.55
2018-07-25T12:56:59.744Z,4.22
2018-07-25T12:59:27.998Z,4.17
2018-07-25T13:01:56.283Z,2.33
2018-07-25T13:04:24.516Z,2.67
2018-07-25T13:06:52.757Z,2.27
2018-07-25T13:09:21.031Z,3.20
2018-07-25T13:11:49.276Z,2.62
2018-07-25T13:14:17.519Z,4.97
2018-07-25T13:16:45.761Z,3.00
2018-07-25T13:19:14.026Z,4.80
2018-07-25T13:21:42.263Z,2.67
2018-07-25T13:24:10.541Z,4.47
2018-07-25T13:26:38.929Z,4.08
2018-07-25T13:29:07.186Z,3.75
2018-07-25T13:31:35.445Z,4.37
2018-07-25T13:34:03.737Z,3.85
2018-07-25T13:36:31.966Z,2.65
2018-07-25T13:39:00.987Z,7.60
2018-07-25T13:41:29.242Z,3.58
2018-07-25T13:43:57.483Z,4.00
2018-07-25T13:46:25.749Z,3.45
2018-07-25T13:48:53.947Z,3.62
2018-07-25T13:51:22.181Z,3.90
2018-07-25T13:53:50.465Z,3.15
2018-07-25T13:56:18.712Z,3.47
2018-07-25T13:58:47.059Z,5.37
2018-07-25T14:01:15.332Z,3.65
2018-07-25T14:03:43.626Z,2.62
2018-07-25T14:06:11.900Z,3.92
2018-07-25T14:08:40.236Z,4.00
2018-07-25T14:11:08.648Z,3.95
2018-07-25T14:13:36.880Z,3.72
2018-07-25T14:16:05.449Z,3.00
2018-07-25T14:18:33.727Z,2.92
2018-07-25T14:21:01.783Z,4.15
2018-07-25T14:23:30.187Z,3.12
2018-07-25T14:25:58.461Z,4.95
2018-07-25T14:28:26.717Z,4.67
2018-07-25T14:30:54.965Z,4.75
2018-07-25T14:33:23.220Z,4.05
2018-07-25T14:35:51.484Z,4.72
2018-07-25T14:38:20.184Z,5.47
2018-07-25T14:40:48.445Z,5.40
2018-07-25T14:43:16.739Z,2.12
2018-07-25T14:45:44.949Z,5.87
2018-07-25T14:48:13.176Z,3.47
2018-07-25T14:50:41.471Z,2.83
2018-07-25T14:53:09.729Z,4.62
2018-07-25T14:55:37.960Z,5.97
2018-07-25T14:58:06.447Z,3.92
2018-07-25T15:00:34.738Z,4.00
2018-07-25T15:03:02.989Z,2.85
2018-07-25T15:05:31.285Z,4.75
2018-07-25T15:07:59.581Z,2.72
2018-07-25T15:10:27.858Z,4.42
2018-07-25T15:12:57.539Z,3.45
2018-07-25T15:15:26.344Z,4.08
2018-07-25T15:17:54.925Z,3.55
2018-07-25T15:20:23.292Z,6.80
2018-07-25T15:22:51.623Z,2.70
2018-07-25T15:25:19.819Z,2.58
2018-07-25T15:27:48.333Z,4.03
2018-07-25T15:30:16.609Z,3.65
2018-07-25T15:32:44.859Z,3.45
2018-07-25T15:35:13.169Z,2.47
2018-07-25T15:37:41.406Z,3.15
2018-07-25T15:40:09.664Z,4.45
2018-07-25T15:42:37.916Z,2.98
2018-07-25T15:45:06.430Z,2.35
2018-07-25T15:47:34.687Z,2.90
2018-07-25T15:50:02.944Z,5.42
2018-07-25T15:52:31.169Z,3.08
2018-07-25T15:54:59.400Z,5.00
2018-07-25T15:57:27.666Z,5.12
2018-07-25T15:59:55.919Z,3.87
2018-07-25T16:02:24.193Z,4.55
2018-07-25T16:04:52.430Z,5.47
2018-07-25T16:07:20.773Z,3.33
2018-07-25T16:09:49.020Z,3.42
2018-07-25T16:12:17.283Z,4.00
2018-07-25T16:14:45.290Z,2.35
2018-07-25T16:17:13.532Z,2.98
2018-07-25T16:19:41.791Z,4.08
2018-07-25T16:22:10.045Z,3.47
2018-07-25T16:24:38.264Z,2.62
2018-07-25T16:27:06.734Z,3.30
2018-07-25T16:29:34.959Z,2.75
2018-07-25T16:32:03.214Z,6.97
2018-07-25T16:34:31.441Z,5.00
2018-07-25T16:36:59.473Z,3.22
2018-07-25T16:39:27.716Z,6.37
2018-07-25T16:41:55.973Z,4.33
2018-07-25T16:44:23.993Z,3.27
2018-07-25T16:46:52.251Z,2.80
2018-07-25T16:49:20.516Z,4.28
2018-07-25T16:51:48.781Z,4.28
2018-07-25T16:54:17.019Z,3.77
2018-07-25T16:56:45.314Z,4.72
2018-07-25T16:59:13.324Z,3.45
2018-07-25T17:01:41.572Z,5.10
2018-07-25T17:04:09.812Z,3.95
2018-07-25T17:06:38.093Z,4.17
2018-07-25T17:09:07.975Z,7.42
2018-07-25T17:11:36.232Z,6.17
2018-07-25T17:14:04.497Z,5.05
2018-07-25T17:16:32.739Z,4.50
2018-07-25T17:19:00.983Z,4.50
2018-07-25T17:21:29.274Z,4.30
2018-07-25T17:23:57.508Z,2.72
2018-07-25T17:26:26.973Z,3.35
2018-07-25T17:28:55.208Z,3.70
2018-07-25T17:31:23.457Z,4.47
2018-07-25T17:33:51.702Z,5.00
2018-07-25T17:36:19.978Z,2.92
2018-07-25T17:38:47.992Z,3.45
2018-07-25T17:41:16.300Z,2.65
2018-07-25T17:43:44.542Z,2.85
2018-07-25T17:46:12.784Z,6.25
2018-07-25T17:48:41.050Z,5.17
2018-07-25T17:51:09.292Z,4.30
2018-07-25T17:53:37.549Z,4.72
2018-07-25T17:56:06.088Z,2.67
2018-07-25T17:58:34.323Z,3.30
2018-07-25T18:01:02.592Z,4.55
2018-07-25T18:03:30.902Z,4.80
2018-07-25T18:05:59.155Z,2.22
2018-07-25T18:08:27.405Z,8.20
2018-07-25T18:10:55.628Z,3.30
2018-07-25T18:14:29.568Z,4.12
2018-07-25T18:16:57.820Z,6.37
2018-07-25T18:19:26.075Z,4.75
2018-07-25T18:21:54.351Z,3.50
2018-07-25T18:24:22.593Z,3.40
2018-07-25T18:26:50.855Z,4.53
2018-07-25T18:29:19.175Z,6.15
2018-07-25T18:31:47.395Z,6.30
2018-07-25T18:34:15.640Z,9.48
2018-07-25T18:36:43.663Z,6.78
2018-07-25T18:39:12.344Z,8.48
2018-07-25T18:41:41.116Z,10.40
2018-07-25T18:44:09.775Z,4.10
2018-07-25T18:46:38.037Z,7.05
2018-07-25T18:49:06.315Z,9.50
2018-07-25T18:51:34.608Z,8.75
2018-07-25T18:54:02.873Z,7.87
2018-07-25T18:56:31.124Z,7.70
2018-07-25T18:58:59.363Z,6.25
2018-07-25T19:01:29.975Z,7.25
2018-07-25T19:03:58.290Z,6.40
2018-07-25T19:06:26.575Z,6.08
2018-07-25T19:08:54.992Z,3.17
2018-07-25T19:11:23.542Z,5.33
2018-07-25T19:13:57.309Z,5.17
2018-07-25T19:16:25.774Z,3.58
2018-07-25T19:18:54.016Z,4.28
2018-07-25T19:21:22.254Z,6.08
2018-07-25T19:23:50.599Z,5.10
2018-07-25T19:26:18.599Z,4.70
2018-07-25T19:28:47.398Z,5.25
2018-07-25T19:31:15.832Z,5.60
2018-07-25T19:33:44.926Z,4.67
2018-07-25T19:36:13.509Z,5.40
2018-07-25T19:38:41.831Z,4.03
2018-07-25T19:41:10.110Z,4.35
2018-07-25T19:43:38.448Z,3.90
2018-07-25T19:46:06.903Z,6.15
2018-07-25T19:48:35.009Z,5.00
2018-07-25T19:51:03.323Z,5.30
2018-07-25T19:53:32.089Z,5.15
2018-07-25T19:56:00.401Z,5.13
2018-07-25T19:58:28.640Z,7.87
2018-07-25T20:00:56.976Z,7.67
2018-07-25T20:03:25.248Z,9.37
2018-07-25T20:05:53.263Z,12.23
2018-07-25T20:08:21.597Z,10.77
2018-07-25T20:10:49.811Z,23.77
2018-07-25T20:13:18.089Z,17.60
2018-07-25T20:15:51.760Z,24.77
2018-07-25T20:18:20.141Z,14.77
2018-07-25T20:20:48.453Z,18.50
2018-07-25T20:23:16.711Z,16.70
2018-07-25T20:25:45.093Z,15.87
2018-07-25T20:28:13.933Z,13.53
2018-07-25T20:30:42.153Z,9.67
2018-07-25T20:33:10.407Z,12.27
2018-07-25T20:35:40.357Z,9.17
2018-07-25T20:38:08.584Z,13.10
2018-07-25T20:40:36.803Z,12.00
2018-07-25T20:43:05.054Z,10.53
2018-07-25T20:45:33.322Z,13.73
2018-07-25T20:48:01.553Z,7.80
2018-07-25T20:50:29.573Z,9.00
2018-07-25T20:52:57.816Z,8.30
2018-07-25T20:55:26.073Z,9.43
2018-07-25T20:57:54.346Z,6.90
2018-07-25T21:00:33.022Z,7.60
2018-07-25T21:03:01.837Z,13.93
2018-07-25T21:05:30.303Z,6.60
2018-07-25T21:07:58.557Z,5.63
2018-07-25T21:10:26.836Z,5.80
2018-07-25T21:12:55.176Z,7.07
2018-07-25T21:15:23.334Z,6.93
2018-07-25T21:17:51.589Z,5.97
2018-07-25T21:20:19.891Z,6.60
2018-07-25T21:22:48.133Z,7.67
2018-07-25T21:25:16.365Z,7.03
2018-07-25T21:27:44.600Z,5.00
2018-07-25T21:30:12.834Z,5.10
2018-07-25T21:32:41.210Z,5.97
2018-07-25T21:35:09.498Z,6.80
2018-07-25T21:37:37.773Z,6.27
2018-07-25T21:40:06.054Z,5.73
2018-07-25T21:42:34.310Z,6.03
2018-07-25T21:45:02.575Z,5.93
2018-07-25T21:47:30.808Z,7.40
2018-07-25T21:49:59.059Z,10.00
2018-07-25T21:52:27.265Z,8.17
2018-07-25T21:54:55.533Z,10.13
2018-07-25T21:57:23.769Z,11.00
2018-07-25T21:59:52.056Z,8.93
2018-07-25T22:02:20.320Z,7.50
2018-07-25T22:04:48.569Z,6.87
2018-07-25T22:07:16.824Z,6.90
2018-07-25T22:09:45.088Z,6.50
2018-07-25T22:12:13.075Z,8.87
2018-07-25T22:14:41.296Z,8.47
2018-07-25T22:17:09.531Z,8.57
2018-07-25T22:19:37.794Z,5.73
2018-07-25T22:22:06.013Z,7.83
2018-07-25T22:24:34.251Z,6.90
2018-07-25T22:27:02.510Z,9.00
2018-07-25T22:29:30.526Z,7.23
2018-07-25T22:31:58.780Z,8.93
2018-07-25T22:34:27.030Z,7.93
2018-07-25T22:36:55.253Z,6.60
2018-07-25T22:39:23.512Z,9.77
2018-07-25T22:41:51.736Z,9.03
2018-07-25T22:44:20.224Z,12.00
2018-07-25T22:46:48.226Z,9.33
2018-07-25T22:49:16.452Z,6.73
2018-07-25T22:51:44.717Z,7.87
2018-07-25T22:54:12.960Z,6.33
2018-07-25T22:56:41.231Z,9.00
2018-07-25T22:59:09.449Z,9.40
2018-07-25T23:01:37.700Z,7.27
2018-07-25T23:04:05.981Z,15.73
2018-07-25T23:06:34.261Z,10.77
2018-07-25T23:09:02.521Z,7.53
2018-07-25T23:11:30.788Z,10.20
2018-07-25T23:13:59.032Z,7.93
2018-07-25T23:16:27.288Z,6.60
2018-07-25T23:18:55.304Z,6.20
2018-07-25T23:21:23.568Z,6.33
2018-07-25T23:23:51.821Z,9.03
2018-07-25T23:26:20.097Z,8.43
2018-07-25T23:28:48.348Z,10.43
2018-07-25T23:31:16.692Z,9.90
2018-07-25T23:33:44.929Z,8.73
2018-07-25T23:36:13.175Z,7.97
2018-07-25T23:38:41.419Z,10.90
2018-07-25T23:41:09.695Z,7.07
2018-07-25T23:43:37.944Z,8.17
2018-07-25T23:46:06.992Z,7.93
2018-07-25T23:48:35.235Z,6.87
2018-07-25T23:51:03.491Z,9.60
2018-07-25T23:53:31.733Z,6.57
2018-07-25T23:56:00.021Z,7.63
2018-07-25T23:58:28.244Z,10.77
